Pagina principale
METAR-TAF:

METAR-TAF

Aeroporti :

Rundu, Namibia

latitudine: 17-57-20S, longitudine: 019-43-25E, altezza: 1106 m

Osservazione

Il bollettino è stato emesso 49 minuti fa, alle 06:00 UTC
Vento 2 kt da sud-est
Temperature 11°C
Umidità 50%
Pressione 1025 hPa

METAR: FYRU 270600Z AUTO 14002KT //// // ////// 11/01 Q1025

Ora: 07:49 (06:49 UTC)

Previsione

Il bollettino è stato emesso 1 ora e 49 minuti fa, alle 05:00 UTC
Previsione valida dal 27 alle 06 UTC al 27 alle 15 UTC
Vento kt da nord
Visibilità 10 km o più
nessuna nube inferiore a 1500 m e nessun cumulonembo

TAF: FYRU 270500Z 2706/2715 00000KT CAVOK

Osservazioni e previsioni meteorologiche di più di 4000 aeroporti (messaggi METAR e TAF).

Le stazioni disponibili sono rappresentate dai dischi gialli e rossi sulla carta.

Puntare il mouse per vedere il nome della stazione.

Clicca sopra per visualizzare le osservazioni e previsioni meteorologiche.

Per cambiare la mappa : fare clic sui pulsanti verdi con una croce nera per ingrandire, il pulsante verde con un trattino per diminuire, o sulla freccia verde per le mappe adiacenti.


METAR-TAF: